Time;durP1;ratioP1;P1;durP2;ratioP2;P2;SDS_P1;SDS_P2;PMS_P1;PMS_P2;Temp;Humidity;BMP_temperature;BMP_pressure;BME280_temperature;BME280_humidity;BME280_pressure;Samples;Min_cycle;Max_cycle;Signal;HPM_P1;HPM_P2
2022/01/09 00:00:09;;;;;;;0.60;0.60;;;21.90;43.00;;;;;;5049664;28;43625;-65
2022/01/09 00:02:40;;;;;;;0.52;0.52;;;21.90;43.10;;;;;;5050791;28;43947;-65
2022/01/09 00:05:08;;;;;;;0.57;0.57;;;21.90;43.10;;;;;;5081419;27;44015;-65
2022/01/09 00:07:38;;;;;;;0.60;0.60;;;21.90;43.10;;;;;;5081486;27;43507;-66
2022/01/09 00:10:07;;;;;;;0.47;0.47;;;21.90;43.00;;;;;;5050641;28;43539;-65
2022/01/09 00:12:35;;;;;;;0.68;0.68;;;21.90;43.10;;;;;;5049601;28;44131;-65
2022/01/09 00:15:03;;;;;;;0.50;0.50;;;21.90;43.10;;;;;;5050030;28;43542;-65
2022/01/09 00:17:31;;;;;;;0.98;0.60;;;21.90;43.10;;;;;;5053525;28;43647;-66
2022/01/09 00:19:59;;;;;;;0.60;0.60;;;21.80;43.00;;;;;;5048057;28;43638;-66
2022/01/09 00:22:59;;;;;;;0.60;0.55;;;21.80;43.10;;;;;;5047357;28;44220;-66
2022/01/09 00:25:22;;;;;;;0.70;0.70;;;21.80;43.10;;;;;;5048411;28;43724;-65
2022/01/09 00:27:51;;;;;;;0.67;0.63;;;21.80;43.10;;;;;;5041883;28;43859;-65
2022/01/09 00:30:21;;;;;;;0.57;0.57;;;21.80;43.10;;;;;;5061258;28;43520;-65
2022/01/09 00:32:50;;;;;;;0.50;0.50;;;21.70;43.10;;;;;;5042012;28;45639;-66
2022/01/09 00:35:17;;;;;;;0.45;0.45;;;21.80;43.10;;;;;;5041873;28;43430;-66
2022/01/09 00:37:45;;;;;;;0.50;0.50;;;21.80;43.10;;;;;;5059352;28;43519;-66
2022/01/09 00:40:13;;;;;;;0.68;0.45;;;21.70;43.10;;;;;;5043358;28;44499;-65
2022/01/09 00:42:41;;;;;;;0.50;0.50;;;21.70;43.10;;;;;;5060772;28;45447;-66
2022/01/09 00:45:11;;;;;;;0.50;0.50;;;21.70;43.10;;;;;;5039648;28;43487;-65
2022/01/09 00:47:38;;;;;;;0.30;0.30;;;21.70;43.20;;;;;;5042757;28;43627;-66
2022/01/09 00:50:07;;;;;;;0.55;0.47;;;21.70;43.20;;;;;;5045436;28;43463;-66
2022/01/09 00:52:35;;;;;;;0.98;0.35;;;21.70;43.10;;;;;;5046674;28;45996;-65
2022/01/09 00:55:04;;;;;;;0.52;0.52;;;21.60;43.10;;;;;;5049056;28;43477;-66
2022/01/09 00:57:33;;;;;;;0.50;0.50;;;21.60;43.10;;;;;;5048992;28;43490;-65
2022/01/09 01:00:00;;;;;;;0.50;0.50;;;21.60;43.10;;;;;;5029093;28;43491;-66
2022/01/09 01:02:27;;;;;;;0.60;0.60;;;21.60;43.10;;;;;;5045598;28;45294;-66
2022/01/09 01:04:55;;;;;;;0.63;0.57;;;21.60;43.20;;;;;;5044160;28;45116;-66
2022/01/09 01:07:23;;;;;;;0.47;0.47;;;21.60;43.20;;;;;;5043731;28;43410;-66
2022/01/09 01:09:50;;;;;;;0.60;0.60;;;21.60;43.20;;;;;;5047230;28;43507;-65
2022/01/09 01:12:18;;;;;;;0.50;0.50;;;21.60;43.30;;;;;;5046535;28;44004;-65
2022/01/09 01:14:45;;;;;;;0.57;0.57;;;21.50;43.20;;;;;;5080859;27;43883;-66
2022/01/09 01:17:13;;;;;;;0.50;0.50;;;21.50;43.20;;;;;;5029762;28;43473;-66
2022/01/09 01:19:41;;;;;;;0.40;0.40;;;21.50;43.20;;;;;;5046943;28;43479;-65
2022/01/09 01:22:27;;;;;;;0.55;0.55;;;21.50;43.30;;;;;;5049284;28;43820;-65
2022/01/09 01:24:56;;;;;;;0.30;0.30;;;21.50;43.30;;;;;;5047661;28;43737;-65
2022/01/09 01:27:24;;;;;;;0.60;0.60;;;21.50;43.30;;;;;;5045941;28;43450;-66
2022/01/09 01:29:52;;;;;;;0.40;0.40;;;21.50;43.30;;;;;;5046827;28;43669;-66
2022/01/09 01:32:20;;;;;;;0.52;0.40;;;21.50;43.40;;;;;;5046158;28;44188;-65
2022/01/09 01:34:47;;;;;;;0.57;0.57;;;21.40;43.30;;;;;;5048813;28;43561;-65
2022/01/09 01:37:14;;;;;;;0.60;0.60;;;21.40;43.30;;;;;;5045027;28;43576;-66
2022/01/09 01:39:42;;;;;;;0.47;0.47;;;21.40;43.30;;;;;;5050127;28;43611;-65
2022/01/09 01:42:09;;;;;;;0.60;0.57;;;21.40;43.40;;;;;;5047008;28;43934;-66
2022/01/09 01:44:46;;;;;;;0.40;0.40;;;21.40;43.40;;;;;;5047977;28;44112;-65
2022/01/09 01:47:15;;;;;;;0.50;0.50;;;21.40;44.00;;;;;;5044972;28;44012;-66
2022/01/09 01:49:43;;;;;;;0.50;0.50;;;21.40;43.40;;;;;;5052723;28;43524;-66
2022/01/09 01:52:11;;;;;;;0.50;0.50;;;21.40;43.40;;;;;;5049341;28;44047;-65
2022/01/09 01:54:42;;;;;;;0.40;0.40;;;21.30;43.40;;;;;;5049486;28;43435;-66
2022/01/09 01:57:10;;;;;;;0.40;0.30;;;21.40;43.40;;;;;;5049169;28;43451;-65
2022/01/09 01:59:38;;;;;;;0.50;0.50;;;21.30;43.40;;;;;;5048281;28;43511;-65
2022/01/09 02:02:06;;;;;;;0.50;0.50;;;21.30;43.40;;;;;;5047081;28;45707;-65
2022/01/09 02:04:33;;;;;;;0.68;0.68;;;21.30;43.40;;;;;;5045740;28;43355;-66
2022/01/09 02:07:03;;;;;;;0.50;0.50;;;21.30;43.40;;;;;;5065389;28;43484;-66
2022/01/09 02:09:30;;;;;;;0.40;0.40;;;21.30;43.40;;;;;;5052442;28;43491;-65
2022/01/09 02:11:59;;;;;;;0.40;0.40;;;21.30;43.40;;;;;;5050850;28;43933;-66
2022/01/09 02:14:26;;;;;;;0.50;0.50;;;21.30;43.50;;;;;;5045455;28;44876;-65
2022/01/09 02:16:54;;;;;;;0.35;0.35;;;21.30;43.50;;;;;;5039553;28;43519;-66
2022/01/09 02:19:22;;;;;;;0.40;0.40;;;21.30;43.50;;;;;;5042201;28;43536;-66
2022/01/09 02:21:50;;;;;;;0.40;0.40;;;21.30;43.50;;;;;;5039511;28;45790;-65
2022/01/09 02:24:18;;;;;;;0.43;0.43;;;21.30;43.50;;;;;;5040932;28;44140;-66
2022/01/09 02:26:45;;;;;;;0.45;0.45;;;21.30;43.50;;;;;;5073716;27;43410;-65
2022/01/09 02:29:12;;;;;;;0.55;0.55;;;21.20;43.50;;;;;;5041647;28;43515;-66
2022/01/09 02:31:40;;;;;;;0.50;0.50;;;21.20;43.50;;;;;;5043082;28;43960;-66
2022/01/09 02:34:08;;;;;;;0.40;0.40;;;21.20;43.60;;;;;;5046465;28;43456;-66
2022/01/09 02:36:35;;;;;;;0.50;0.50;;;21.20;43.60;;;;;;5045663;28;43425;-65
2022/01/09 02:39:03;;;;;;;0.40;0.40;;;21.20;43.60;;;;;;5047248;28;43679;-65
2022/01/09 02:41:31;;;;;;;0.50;0.50;;;21.10;43.60;;;;;;5080165;27;45126;-65
2022/01/09 02:43:58;;;;;;;0.65;0.65;;;21.20;43.70;;;;;;5047540;28;43515;-66
2022/01/09 02:46:42;;;;;;;0.45;0.45;;;21.20;43.70;;;;;;5048251;28;43502;-66
2022/01/09 02:49:10;;;;;;;0.40;0.40;;;21.20;43.70;;;;;;5045551;28;43453;-65
2022/01/09 02:51:40;;;;;;;0.77;0.50;;;21.20;43.70;;;;;;5049287;28;45064;-66
2022/01/09 02:55:06;;;;;;;0.43;0.43;;;21.10;43.60;;;;;;5048892;28;43475;-66
2022/01/09 02:56:55;;;;;;;0.60;0.60;;;21.10;43.60;;;;;;5081083;27;43938;-65
2022/01/09 02:59:23;;;;;;;0.50;0.50;;;21.10;43.60;;;;;;5047391;28;43578;-66
2022/01/09 03:01:50;;;;;;;0.60;0.60;;;21.10;43.70;;;;;;5049458;28;43803;-65
2022/01/09 03:04:17;;;;;;;0.85;0.50;;;21.10;43.70;;;;;;5048603;28;43714;-65
2022/01/09 03:06:45;;;;;;;0.50;0.50;;;21.10;43.70;;;;;;5049282;28;43527;-65
2022/01/09 03:09:12;;;;;;;0.70;0.60;;;21.00;43.60;;;;;;5050768;28;43501;-66
2022/01/09 03:11:40;;;;;;;0.45;0.45;;;21.00;43.70;;;;;;5050121;28;44015;-65
2022/01/09 03:14:08;;;;;;;0.60;0.60;;;21.00;43.70;;;;;;5050683;28;43702;-65
2022/01/09 03:16:35;;;;;;;0.40;0.40;;;21.00;43.70;;;;;;5047372;28;43538;-65
2022/01/09 03:19:03;;;;;;;0.70;0.52;;;21.00;43.70;;;;;;5047881;28;43514;-65
2022/01/09 03:21:30;;;;;;;0.40;0.40;;;21.00;43.80;;;;;;5049911;28;45955;-65
2022/01/09 03:23:58;;;;;;;0.90;0.80;;;21.00;43.70;;;;;;5047859;28;43458;-66
2022/01/09 03:26:25;;;;;;;0.88;0.70;;;21.00;43.80;;;;;;5065608;28;43515;-65
2022/01/09 03:28:53;;;;;;;0.95;0.80;;;20.90;43.70;;;;;;5051237;28;43987;-65
2022/01/09 03:31:20;;;;;;;2.25;1.13;;;20.90;43.70;;;;;;5064687;28;46114;-66
2022/01/09 03:33:47;;;;;;;1.75;0.90;;;20.90;43.80;;;;;;5080610;27;43455;-66
2022/01/09 03:36:15;;;;;;;1.88;1.05;;;20.90;43.80;;;;;;5053613;28;43448;-66
2022/01/09 03:38:42;;;;;;;1.20;0.85;;;20.90;43.80;;;;;;5046810;28;43479;-66
2022/01/09 03:41:10;;;;;;;1.08;0.98;;;20.90;43.90;;;;;;5034966;28;45862;-66
2022/01/09 03:43:37;;;;;;;1.00;0.90;;;20.90;43.80;;;;;;5052408;28;44092;-65
2022/01/09 03:46:05;;;;;;;1.13;1.00;;;20.90;43.80;;;;;;5048972;28;43536;-66
2022/01/09 03:48:32;;;;;;;1.88;1.00;;;20.80;43.80;;;;;;5044912;28;43677;-65
2022/01/09 03:51:02;;;;;;;1.50;1.10;;;20.80;43.90;;;;;;5051573;28;44219;-66
2022/01/09 03:53:31;;;;;;;1.63;0.90;;;20.80;43.80;;;;;;5048351;28;43492;-65
2022/01/09 03:55:59;;;;;;;1.50;1.10;;;20.80;43.90;;;;;;5046625;28;43453;-65
2022/01/09 03:58:26;;;;;;;3.42;1.23;;;20.80;43.90;;;;;;5041769;28;43507;-66
2022/01/09 04:00:54;;;;;;;2.60;1.50;;;20.80;43.90;;;;;;5044165;28;44194;-66
2022/01/09 04:03:21;;;;;;;1.77;0.80;;;20.80;43.90;;;;;;5042683;28;43391;-66
2022/01/09 04:05:49;;;;;;;1.38;1.10;;;20.70;43.90;;;;;;5043798;28;43531;-66
2022/01/09 04:08:18;;;;;;;2.25;1.20;;;20.70;44.00;;;;;;5042081;28;44121;-65
2022/01/09 04:10:48;;;;;;;2.08;1.23;;;20.70;44.00;;;;;;5042950;28;44048;-66
2022/01/09 04:13:15;;;;;;;1.98;1.40;;;20.70;44.00;;;;;;5043436;28;43352;-66
2022/01/09 04:15:47;;;;;;;3.15;1.73;;;20.70;44.00;;;;;;5047645;28;43630;-65
2022/01/09 04:18:21;;;;;;;2.47;1.40;;;20.70;44.00;;;;;;5043599;28;43610;-66
2022/01/09 04:20:50;;;;;;;1.92;1.38;;;20.70;44.00;;;;;;5041583;28;43665;-66
2022/01/09 04:23:18;;;;;;;2.40;1.30;;;20.70;44.00;;;;;;5044348;28;43487;-65
2022/01/09 04:25:47;;;;;;;3.30;1.60;;;20.70;44.10;;;;;;5044586;28;43516;-65
2022/01/09 04:28:15;;;;;;;4.25;1.92;;;20.70;44.00;;;;;;5045409;28;43491;-66
2022/01/09 04:30:43;;;;;;;2.65;1.63;;;20.60;44.00;;;;;;5079328;27;43955;-66
2022/01/09 04:33:11;;;;;;;3.13;1.70;;;20.60;44.10;;;;;;5045593;28;43480;-66
2022/01/09 04:35:40;;;;;;;4.07;2.00;;;20.60;44.00;;;;;;5046453;28;43555;-66
2022/01/09 04:38:08;;;;;;;3.08;1.80;;;20.60;44.00;;;;;;5046889;28;43536;-65
2022/01/09 04:40:36;;;;;;;5.22;2.20;;;20.60;44.00;;;;;;5048318;28;43964;-66
2022/01/09 04:43:06;;;;;;;4.53;2.00;;;20.60;44.10;;;;;;5079811;27;44354;-66
2022/01/09 04:45:34;;;;;;;6.05;2.15;;;20.60;44.10;;;;;;5044145;28;43469;-66
2022/01/09 04:48:05;;;;;;;4.88;2.10;;;20.50;44.10;;;;;;5045578;28;43457;-66
2022/01/09 04:50:36;;;;;;;4.38;2.38;;;20.60;44.20;;;;;;5046473;28;44749;-66
2022/01/09 04:53:06;;;;;;;4.05;2.13;;;20.60;44.10;;;;;;5044397;28;45369;-66
2022/01/09 04:55:50;;;;;;;4.68;2.42;;;20.50;44.10;;;;;;5047673;28;43480;-66
2022/01/09 04:58:18;;;;;;;4.25;2.00;;;20.50;44.10;;;;;;5044973;28;43503;-66
2022/01/09 05:00:45;;;;;;;5.47;2.38;;;20.50;44.10;;;;;;5082094;27;44810;-66
2022/01/09 05:03:14;;;;;;;5.57;2.60;;;20.50;44.10;;;;;;5083137;27;43736;-65
2022/01/09 05:05:42;;;;;;;5.00;2.30;;;20.50;44.20;;;;;;5047473;28;43523;-65
2022/01/09 05:08:10;;;;;;;5.15;2.35;;;20.50;44.10;;;;;;5052321;28;43420;-65
2022/01/09 05:10:37;;;;;;;4.90;2.35;;;20.50;44.10;;;;;;5087796;27;44148;-66
2022/01/09 05:13:06;;;;;;;4.88;2.60;;;20.50;44.20;;;;;;5046299;28;43782;-65
2022/01/09 05:15:33;;;;;;;5.82;2.50;;;20.40;44.10;;;;;;5047579;28;44028;-65
2022/01/09 05:18:03;;;;;;;6.57;2.58;;;20.40;44.20;;;;;;5047468;28;43506;-66
2022/01/09 05:20:31;;;;;;;5.22;2.33;;;20.40;44.10;;;;;;5045810;28;43656;-66
2022/01/09 05:22:58;;;;;;;5.28;2.67;;;20.40;44.10;;;;;;5046752;28;44282;-66
2022/01/09 05:25:26;;;;;;;6.80;2.53;;;20.40;44.10;;;;;;5047999;28;43471;-66
2022/01/09 05:27:53;;;;;;;6.18;2.70;;;20.40;44.10;;;;;;5049235;28;43499;-66
2022/01/09 05:30:21;;;;;;;5.85;2.70;;;20.40;44.10;;;;;;5078684;27;44052;-66
2022/01/09 05:32:48;;;;;;;5.68;2.78;;;20.40;44.20;;;;;;5050448;28;43466;-66
2022/01/09 05:35:16;;;;;;;6.68;2.88;;;20.30;44.10;;;;;;5080007;27;43517;-66
2022/01/09 05:37:43;;;;;;;5.47;2.60;;;20.40;44.10;;;;;;5049665;28;43549;-66
2022/01/09 05:40:11;;;;;;;7.28;2.45;;;20.30;44.10;;;;;;5050767;28;43560;-65
2022/01/09 05:42:39;;;;;;;5.80;2.85;;;20.30;44.10;;;;;;5048607;28;43509;-66
2022/01/09 05:45:08;;;;;;;7.47;2.78;;;20.30;44.10;;;;;;5048962;28;43963;-66
2022/01/09 05:47:35;;;;;;;6.10;2.70;;;20.30;44.10;;;;;;5050080;28;43448;-65
2022/01/09 05:50:05;;;;;;;7.05;3.10;;;20.30;44.10;;;;;;5038801;28;46014;-65
2022/01/09 05:52:32;;;;;;;5.63;2.35;;;20.30;44.10;;;;;;5044635;28;43547;-66
2022/01/09 05:54:59;;;;;;;7.10;2.80;;;20.30;44.10;;;;;;5043313;28;43476;-66
2022/01/09 05:57:27;;;;;;;7.75;3.00;;;20.30;44.10;;;;;;5040977;28;44089;-66
2022/01/09 05:59:54;;;;;;;6.30;2.58;;;20.20;44.10;;;;;;5041031;28;44051;-66
2022/01/09 06:02:21;;;;;;;7.07;2.90;;;20.20;44.10;;;;;;5041689;28;43563;-65
2022/01/09 06:04:49;;;;;;;5.18;2.72;;;20.20;44.10;;;;;;5076365;27;43466;-66
2022/01/09 06:07:16;;;;;;;7.10;2.90;;;20.20;44.10;;;;;;5044422;28;43510;-66
2022/01/09 06:09:44;;;;;;;6.47;2.75;;;20.20;44.10;;;;;;5047154;28;44096;-66
2022/01/09 06:12:12;;;;;;;7.10;2.90;;;20.20;44.10;;;;;;5047436;28;44340;-66
2022/01/09 06:14:39;;;;;;;5.28;2.60;;;20.10;44.10;;;;;;5049964;28;43462;-66
2022/01/09 06:17:07;;;;;;;5.88;2.72;;;20.20;44.10;;;;;;5046946;28;43465;-66
2022/01/09 06:19:35;;;;;;;5.88;2.80;;;20.10;44.10;;;;;;5049306;28;43932;-65
2022/01/09 06:22:03;;;;;;;7.70;3.03;;;20.20;44.10;;;;;;5048635;28;43464;-66
2022/01/09 06:24:30;;;;;;;6.13;2.85;;;20.20;44.80;;;;;;5048651;28;43510;-66
2022/01/09 06:26:58;;;;;;;5.68;2.75;;;20.20;44.20;;;;;;5048673;28;43535;-65
2022/01/09 06:29:26;;;;;;;7.55;2.50;;;20.20;44.10;;;;;;5049841;28;44247;-65
2022/01/09 06:31:53;;;;;;;4.72;2.33;;;20.20;44.10;;;;;;5081808;27;43717;-66
2022/01/09 06:34:20;;;;;;;6.32;2.63;;;20.20;44.10;;;;;;5049723;28;43374;-65
2022/01/09 06:36:48;;;;;;;6.40;2.65;;;20.20;44.10;;;;;;5049410;28;43635;-65
2022/01/09 06:39:15;;;;;;;6.82;2.95;;;20.20;44.10;;;;;;5080073;27;43576;-66
2022/01/09 06:41:43;;;;;;;4.70;2.42;;;20.20;44.10;;;;;;5082421;27;44047;-65
2022/01/09 06:44:11;;;;;;;5.95;2.80;;;20.20;44.10;;;;;;5051144;28;43433;-66
2022/01/09 06:46:38;;;;;;;4.45;2.50;;;20.20;44.10;;;;;;5046244;28;43647;-66
2022/01/09 06:49:06;;;;;;;5.78;2.30;;;20.20;44.10;;;;;;5082674;27;44071;-65
2022/01/09 06:51:33;;;;;;;4.88;2.20;;;20.20;44.10;;;;;;5079345;27;44130;-65
2022/01/09 06:54:01;;;;;;;3.90;2.30;;;20.20;44.00;;;;;;5050976;28;43475;-65
2022/01/09 06:56:28;;;;;;;6.13;2.50;;;20.20;44.00;;;;;;5087599;27;43563;-65
2022/01/09 06:58:56;;;;;;;5.75;2.15;;;20.20;44.00;;;;;;5085965;27;43954;-66
2022/01/09 07:01:23;;;;;;;5.18;2.20;;;20.20;44.00;;;;;;5051237;28;43484;-65
2022/01/09 07:03:51;;;;;;;5.47;2.58;;;20.20;44.00;;;;;;5051426;28;43423;-65
2022/01/09 07:06:18;;;;;;;5.40;2.58;;;20.20;44.00;;;;;;5051773;28;43816;-63
2022/01/09 07:08:45;;;;;;;5.95;2.50;;;20.20;44.00;;;;;;5051407;28;45642;-66
2022/01/09 07:11:13;;;;;;;5.32;2.28;;;20.30;44.10;;;;;;5047281;28;43483;-66
2022/01/09 07:13:40;;;;;;;7.22;2.20;;;20.30;44.00;;;;;;5049162;28;43534;-66
2022/01/09 07:16:09;;;;;;;4.63;2.42;;;20.30;44.00;;;;;;5045696;28;43524;-66
2022/01/09 07:18:36;;;;;;;5.13;2.20;;;20.30;44.00;;;;;;5045488;28;45648;-66
2022/01/09 07:21:04;;;;;;;5.25;2.50;;;20.30;43.90;;;;;;5048612;28;43452;-67
2022/01/09 07:23:32;;;;;;;4.15;2.13;;;20.30;43.90;;;;;;5051690;28;43476;-69
2022/01/09 07:26:00;;;;;;;5.25;2.45;;;20.40;43.90;;;;;;5056803;28;43484;-68
2022/01/09 07:28:27;;;;;;;3.17;1.83;;;20.30;43.90;;;;;;5050171;28;43564;-68
2022/01/09 07:30:55;;;;;;;5.13;2.13;;;20.40;43.90;;;;;;5047741;28;43431;-67
2022/01/09 07:33:22;;;;;;;6.47;2.05;;;20.40;44.10;;;;;;5051736;28;43395;-68
2022/01/09 07:35:51;;;;;;;4.88;2.42;;;20.40;43.80;;;;;;5051046;28;43589;-67
2022/01/09 07:38:18;;;;;;;4.40;2.40;;;20.40;43.90;;;;;;5046779;28;47152;-67
2022/01/09 07:40:47;;;;;;;5.15;2.15;;;20.40;43.90;;;;;;5044958;28;43396;-67
2022/01/09 07:43:14;;;;;;;6.35;2.42;;;20.40;43.90;;;;;;5044704;28;43459;-67
2022/01/09 07:45:42;;;;;;;3.70;2.00;;;20.40;43.80;;;;;;5043438;28;43706;-67
2022/01/09 07:48:09;;;;;;;4.47;2.20;;;20.50;43.90;;;;;;5045057;28;43934;-67
2022/01/09 07:50:37;;;;;;;4.40;2.20;;;20.50;43.90;;;;;;5044005;28;44973;-66
2022/01/09 07:53:05;;;;;;;4.30;1.92;;;20.50;43.80;;;;;;5038698;28;43506;-66
2022/01/09 07:55:32;;;;;;;5.57;2.28;;;20.50;43.80;;;;;;5063142;28;43490;-67
2022/01/09 07:58:00;;;;;;;5.18;2.20;;;20.50;43.80;;;;;;5046223;28;44189;-67
2022/01/09 08:00:28;;;;;;;4.38;2.10;;;20.50;43.80;;;;;;5049782;28;43522;-68
2022/01/09 08:02:55;;;;;;;4.03;2.28;;;20.50;43.80;;;;;;5047146;28;43566;-68
2022/01/09 08:05:23;;;;;;;4.20;2.35;;;20.50;43.70;;;;;;5047033;28;43778;-67
2022/01/09 08:07:51;;;;;;;4.97;2.30;;;20.50;43.70;;;;;;5046287;28;45331;-67
2022/01/09 08:10:18;;;;;;;4.63;2.10;;;20.60;43.70;;;;;;5047135;28;45293;-67
2022/01/09 08:12:45;;;;;;;3.58;2.13;;;20.60;43.70;;;;;;5046889;28;43460;-67
2022/01/09 08:15:13;;;;;;;5.22;2.38;;;20.60;43.70;;;;;;5053492;28;43719;-67
2022/01/09 08:17:46;;;;;;;4.22;2.22;;;20.60;43.70;;;;;;5046923;28;45793;-64
2022/01/09 08:20:16;;;;;;;5.40;2.20;;;20.60;43.80;;;;;;5044942;28;45104;-66
2022/01/09 08:22:44;;;;;;;5.35;2.58;;;20.60;43.80;;;;;;5086916;27;43408;-67
2022/01/09 08:25:17;;;;;;;6.03;2.42;;;20.60;43.80;;;;;;5051866;28;43497;-67
2022/01/09 08:27:45;;;;;;;5.20;2.10;;;20.60;43.90;;;;;;5047243;28;43926;-66
2022/01/09 08:30:14;;;;;;;3.95;2.15;;;20.50;43.90;;;;;;5046152;28;43568;-66
2022/01/09 08:32:42;;;;;;;4.88;2.20;;;20.50;43.90;;;;;;5050486;28;43466;-67
2022/01/09 08:35:10;;;;;;;3.83;2.13;;;20.60;43.90;;;;;;5048996;28;43611;-67
2022/01/09 08:37:41;;;;;;;4.60;2.10;;;20.60;43.90;;;;;;5048019;28;45372;-66
2022/01/09 08:40:11;;;;;;;3.70;1.83;;;20.70;43.90;;;;;;5048151;28;44538;-66
2022/01/09 08:42:44;;;;;;;3.88;2.00;;;20.60;43.80;;;;;;5047025;28;43437;-66
2022/01/09 08:45:11;;;;;;;4.45;2.10;;;20.70;43.80;;;;;;5048289;28;43589;-66
2022/01/09 08:47:39;;;;;;;3.72;1.98;;;20.70;43.70;;;;;;5051190;28;44359;-66
2022/01/09 08:50:08;;;;;;;4.03;2.03;;;20.70;43.80;;;;;;5064787;28;44149;-66
2022/01/09 08:52:36;;;;;;;4.03;2.10;;;20.70;43.80;;;;;;5050605;28;43561;-66
2022/01/09 08:55:05;;;;;;;3.53;2.00;;;20.70;43.70;;;;;;5043742;28;44066;-66
2022/01/09 08:57:33;;;;;;;3.33;1.60;;;20.80;43.70;;;;;;5052449;28;45728;-66
2022/01/09 09:00:01;;;;;;;3.65;1.90;;;20.80;43.70;;;;;;5051588;28;43626;-66
2022/01/09 09:02:29;;;;;;;4.03;1.90;;;20.80;43.70;;;;;;5047265;28;43546;-66
2022/01/09 09:04:56;;;;;;;3.35;1.83;;;20.90;43.70;;;;;;5077880;27;43616;-67
2022/01/09 09:07:24;;;;;;;4.95;2.53;;;20.80;43.50;;;;;;5048250;28;45839;-66
2022/01/09 09:09:52;;;;;;;4.93;2.45;;;20.80;43.70;;;;;;5047376;28;44763;-66
2022/01/09 09:12:20;;;;;;;4.68;2.10;;;20.90;43.80;;;;;;5051351;28;43489;-65
2022/01/09 09:14:49;;;;;;;4.72;2.22;;;20.90;43.70;;;;;;5051311;28;43983;-66
2022/01/09 09:17:16;;;;;;;3.95;1.73;;;20.90;44.00;;;;;;5048381;28;43940;-65
2022/01/09 09:19:44;;;;;;;3.75;1.77;;;21.00;43.70;;;;;;5051242;28;44424;-64
2022/01/09 09:22:11;;;;;;;3.70;2.15;;;21.00;43.70;;;;;;5050341;28;43481;-66
2022/01/09 09:24:40;;;;;;;4.55;2.03;;;21.10;43.60;;;;;;5083149;27;43547;-65
2022/01/09 09:27:08;;;;;;;4.95;2.13;;;21.20;43.50;;;;;;5045007;28;44181;-64
2022/01/09 09:29:36;;;;;;;3.78;2.00;;;21.30;43.40;;;;;;5039474;28;43364;-63
2022/01/09 09:32:04;;;;;;;4.65;1.88;;;21.40;43.40;;;;;;5043540;28;43395;-65
2022/01/09 09:34:31;;;;;;;3.53;1.85;;;21.50;43.30;;;;;;5076938;27;43657;-66
2022/01/09 09:37:01;;;;;;;5.07;2.00;;;21.60;43.20;;;;;;5054882;28;44628;-63
2022/01/09 09:39:28;;;;;;;4.10;2.00;;;21.70;43.20;;;;;;5043731;28;44115;-62
2022/01/09 09:41:56;;;;;;;4.47;1.98;;;21.70;43.00;;;;;;5043694;28;43450;-62
2022/01/09 09:44:23;;;;;;;3.00;1.80;;;21.80;42.70;;;;;;5044327;28;43510;-63
2022/01/09 09:46:51;;;;;;;4.03;1.75;;;21.90;42.80;;;;;;5044447;28;44721;-63
2022/01/09 09:49:20;;;;;;;4.88;2.10;;;22.00;42.70;;;;;;5045309;28;43464;-64
2022/01/09 09:51:48;;;;;;;4.15;2.08;;;22.10;42.60;;;;;;5046434;28;43506;-63
2022/01/09 09:54:15;;;;;;;4.65;2.20;;;22.20;42.50;;;;;;5040733;28;43447;-64
2022/01/09 09:56:42;;;;;;;7.65;2.15;;;22.30;42.60;;;;;;5078145;27;44699;-62
2022/01/09 09:59:10;;;;;;;5.18;1.90;;;22.30;42.60;;;;;;5047412;28;43450;-62
2022/01/09 10:01:44;;;;;;;5.20;1.95;;;22.40;42.50;;;;;;5044501;28;44090;-62
2022/01/09 10:04:12;;;;;;;3.83;1.90;;;22.50;42.30;;;;;;5047751;28;43554;-63
2022/01/09 10:06:48;;;;;;;4.22;1.92;;;22.50;42.20;;;;;;5043562;28;44804;-64
2022/01/09 10:09:19;;;;;;;5.32;2.33;;;22.60;42.20;;;;;;5044320;28;43476;-63
2022/01/09 10:12:01;;;;;;;4.68;1.98;;;22.60;42.00;;;;;;5047222;28;43555;-64
2022/01/09 10:14:30;;;;;;;4.25;1.67;;;22.70;42.00;;;;;;5044322;28;43436;-63
2022/01/09 10:17:19;;;;;;;4.07;1.77;;;22.80;42.00;;;;;;5047329;28;43845;-63
2022/01/09 10:19:57;;;;;;;4.80;1.95;;;22.80;41.90;;;;;;5047667;28;43515;-63
2022/01/09 10:22:37;;;;;;;5.03;1.85;;;22.90;41.90;;;;;;5050982;28;43515;-64
2022/01/09 10:25:37;;;;;;;4.63;1.95;;;23.00;41.80;;;;;;5046876;28;43574;-62
2022/01/09 10:28:07;;;;;;;5.25;1.98;;;23.10;41.70;;;;;;5047290;28;45104;-64
2022/01/09 10:30:41;;;;;;;3.13;1.83;;;23.20;41.70;;;;;;5079941;27;44836;-63
2022/01/09 10:33:12;;;;;;;4.72;1.70;;;23.30;41.60;;;;;;5047056;28;43502;-64
2022/01/09 10:35:43;;;;;;;3.58;2.10;;;23.30;41.50;;;;;;5047331;28;43529;-65
2022/01/09 10:38:27;;;;;;;4.45;1.88;;;23.40;41.40;;;;;;5048013;28;43889;-63
2022/01/09 10:40:57;;;;;;;4.22;1.90;;;23.50;41.10;;;;;;5046107;28;43720;-62
2022/01/09 10:43:32;;;;;;;3.50;2.00;;;23.50;41.10;;;;;;5051291;28;43397;-64
2022/01/09 10:46:01;;;;;;;3.58;1.90;;;23.60;41.20;;;;;;5047540;28;43420;-62
2022/01/09 10:48:44;;;;;;;4.57;2.10;;;23.60;41.20;;;;;;5046672;28;43581;-63
2022/01/09 10:51:13;;;;;;;5.22;2.40;;;23.70;41.20;;;;;;5050823;28;43376;-64
2022/01/09 10:53:42;;;;;;;3.53;1.80;;;23.70;41.20;;;;;;5052653;28;43494;-64
2022/01/09 10:56:10;;;;;;;6.13;2.33;;;23.70;41.20;;;;;;5041364;28;43468;-65
2022/01/09 10:58:39;;;;;;;3.92;1.70;;;23.70;41.20;;;;;;5052566;28;43623;-63
2022/01/09 11:01:11;;;;;;;4.68;1.60;;;23.70;41.00;;;;;;5064077;28;43448;-63
2022/01/09 11:03:41;;;;;;;3.75;1.90;;;23.70;41.10;;;;;;5050023;28;43404;-64
2022/01/09 11:06:11;;;;;;;5.68;2.10;;;23.80;41.10;;;;;;5051288;28;43475;-63
2022/01/09 11:08:40;;;;;;;5.53;2.05;;;23.80;41.10;;;;;;5049468;28;44619;-64
2022/01/09 11:14:14;;;;;;;5.43;2.20;;;23.80;41.30;;;;;;5028542;28;43596;-64
2022/01/09 11:16:51;;;;;;;5.18;1.80;;;23.80;41.20;;;;;;5027246;28;43568;-64
2022/01/09 11:19:22;;;;;;;4.60;1.80;;;23.80;41.30;;;;;;5044476;28;44231;-63
2022/01/09 11:22:10;;;;;;;5.20;2.20;;;23.80;41.30;;;;;;5041332;28;43511;-64
2022/01/09 11:25:13;;;;;;;3.95;2.10;;;23.80;41.30;;;;;;5061199;28;43490;-64
2022/01/09 11:28:12;;;;;;;3.55;1.83;;;23.80;41.30;;;;;;5041694;28;43554;-64
2022/01/09 11:31:17;;;;;;;4.05;1.90;;;23.80;41.30;;;;;;5045797;28;44186;-63
2022/01/09 11:34:23;;;;;;;3.83;1.80;;;23.80;41.30;;;;;;5076132;27;43473;-64
2022/01/09 11:37:13;;;;;;;4.45;2.05;;;23.80;41.30;;;;;;5040863;28;43461;-64
2022/01/09 11:39:43;;;;;;;4.18;2.15;;;23.80;41.30;;;;;;5077864;27;43610;-64
2022/01/09 11:42:15;;;;;;;4.13;1.85;;;23.70;41.20;;;;;;5045791;28;44196;-63
2022/01/09 11:44:53;;;;;;;5.35;2.15;;;23.70;41.20;;;;;;5043548;28;43474;-64
2022/01/09 11:47:22;;;;;;;4.60;1.95;;;23.70;41.20;;;;;;5045335;28;43464;-64
2022/01/09 11:49:54;;;;;;;4.77;2.20;;;23.70;41.20;;;;;;5047551;28;43440;-63
2022/01/09 11:52:27;;;;;;;4.00;2.08;;;23.70;41.90;;;;;;5047133;28;44156;-64
2022/01/09 11:54:57;;;;;;;3.28;1.73;;;23.70;41.30;;;;;;5045387;28;44452;-64
2022/01/09 11:57:35;;;;;;;4.68;2.20;;;23.70;41.30;;;;;;5044585;28;43467;-64
2022/01/09 12:00:27;;;;;;;5.65;2.15;;;23.70;41.20;;;;;;5077856;27;43608;-64
2022/01/09 12:02:56;;;;;;;5.90;2.20;;;23.60;41.40;;;;;;5048538;28;44081;-64
2022/01/09 12:05:24;;;;;;;4.60;1.88;;;23.60;41.40;;;;;;5048431;28;43443;-64
2022/01/09 12:07:51;;;;;;;6.15;2.15;;;23.50;41.50;;;;;;5046474;28;43528;-64
2022/01/09 12:10:34;;;;;;;4.60;1.90;;;23.60;41.50;;;;;;5045505;28;43467;-64
2022/01/09 12:13:03;;;;;;;4.55;2.17;;;23.60;41.50;;;;;;5079332;27;43933;-64
2022/01/09 12:15:42;;;;;;;3.30;2.00;;;23.50;41.40;;;;;;5044695;28;43467;-64
2022/01/09 12:18:39;;;;;;;3.53;2.03;;;23.60;41.50;;;;;;5082494;27;44166;-65
2022/01/09 12:21:08;;;;;;;6.10;2.15;;;23.50;41.40;;;;;;5046192;28;43538;-64
2022/01/09 12:23:35;;;;;;;5.07;2.25;;;23.50;41.60;;;;;;5052172;28;43635;-63
2022/01/09 12:26:03;;;;;;;3.22;1.98;;;23.50;41.50;;;;;;5053038;28;43710;-63
2022/01/09 12:28:43;;;;;;;3.92;1.95;;;23.50;41.50;;;;;;5046380;28;43595;-63
2022/01/09 12:31:22;;;;;;;4.05;2.10;;;23.50;41.50;;;;;;5080115;27;43627;-64
2022/01/09 12:33:49;;;;;;;5.47;2.03;;;23.40;41.50;;;;;;5047387;28;43581;-63
2022/01/09 12:36:23;;;;;;;4.47;1.98;;;23.40;41.60;;;;;;5048055;28;44092;-65
2022/01/09 12:38:56;;;;;;;3.47;1.85;;;23.40;41.60;;;;;;5050542;28;43547;-64
2022/01/09 12:41:33;;;;;;;4.43;1.90;;;23.40;41.70;;;;;;5047413;28;43487;-62
2022/01/09 12:44:01;;;;;;;3.08;1.92;;;23.40;41.70;;;;;;5050702;28;44707;-64
2022/01/09 12:46:30;;;;;;;3.45;1.90;;;23.40;41.60;;;;;;5058035;28;43399;-64
2022/01/09 12:48:59;;;;;;;4.18;2.00;;;23.40;41.60;;;;;;5051035;28;43443;-64
2022/01/09 12:51:29;;;;;;;3.78;2.00;;;23.30;41.60;;;;;;5067860;28;43656;-64
2022/01/09 12:54:00;;;;;;;3.53;1.67;;;23.30;41.50;;;;;;5054401;28;44836;-64
2022/01/09 12:56:30;;;;;;;5.05;2.30;;;23.30;41.60;;;;;;5064806;28;43534;-64
2022/01/09 12:59:05;;;;;;;4.30;1.70;;;23.30;41.60;;;;;;5039438;28;43504;-64
2022/01/09 13:01:42;;;;;;;4.47;1.75;;;23.30;41.60;;;;;;5076342;27;43454;-64
2022/01/09 13:04:17;;;;;;;5.03;2.10;;;23.30;41.60;;;;;;5040068;28;44679;-64